DAUH/HME METAR and TAF weather

Enter ICAO airport designator
Station Type Date Time Source
DAUH METAR 2021/05/13 05:30 UTC NOAA

DAUH 130530Z 09004KT CAVOK 19/06 Q1014


Station Type Date Time Source
DAUH Decoded METAR 2021/05/13 05:30 UTC NOAA

Hassi-Messaoud, Algeria (DAUH) 31-40N 006-09E 142M
May 13, 2021 - 01:30 AM EDT / 2021.05.13 0530 UTC
Wind: from the E (090 degrees) at 5 MPH (4 KT):0
Visibility: greater than 7 mile(s):0
Temperature: 66 F (19 C)
Dew Point: 42 F (6 C)
Relative Humidity: 42%
Pressure (altimeter): 29.94 in. Hg (1014 hPa)
ob: DAUH 130530Z 09004KT CAVOK 19/06 Q1014
cycle: 5

Station Type Date Time Source
DAUH TAF 2021/05/13 06:33 UTC NOAA

TAF DAUH 130500Z 1306/1406 04008KT CAVOK

Example: see airport list